sensor_id;sensor_type;location;lat;lon;timestamp;pressure;altitude;pressure_sealevel;temperature;humidity
15642;BME280;7920;42.524;27.448;2022-12-18T13:07:23;102580.66;;;9.24;100.00
15642;BME280;7920;42.524;27.448;2022-12-18T13:10:19;102578.75;;;8.95;100.00
15642;BME280;7920;42.524;27.448;2022-12-18T13:12:57;102583.63;;;9.09;100.00
15642;BME280;7920;42.524;27.448;2022-12-18T13:15:30;102587.19;;;9.05;100.00
15642;BME280;7920;42.524;27.448;2022-12-18T13:18:17;102579.50;;;9.02;100.00
15642;BME280;7920;42.524;27.448;2022-12-18T13:20:50;102566.81;;;8.89;100.00
15642;BME280;7920;42.524;27.448;2022-12-18T13:23:40;102597.34;;;8.75;100.00
15642;BME280;7920;42.524;27.448;2022-12-18T13:26:33;102605.56;;;8.92;100.00
15642;BME280;7920;42.524;27.448;2022-12-18T13:29:03;102604.16;;;8.79;100.00
15642;BME280;7920;42.524;27.448;2022-12-18T13:34:45;102601.78;;;8.29;100.00
15642;BME280;7920;42.524;27.448;2022-12-18T13:37:38;102606.22;;;8.22;100.00
15642;BME280;7920;42.524;27.448;2022-12-18T13:43:32;102645.97;;;8.61;100.00
15642;BME280;7920;42.524;27.448;2022-12-18T13:46:16;102642.59;;;8.58;100.00
15642;BME280;7920;42.524;27.448;2022-12-18T13:48:55;102635.31;;;8.33;100.00
15642;BME280;7920;42.524;27.448;2022-12-18T13:51:26;102624.25;;;8.24;100.00
15642;BME280;7920;42.524;27.448;2022-12-18T13:53:59;102657.97;;;8.19;100.00
15642;BME280;7920;42.524;27.448;2022-12-18T13:56:32;102666.56;;;8.21;100.00
15642;BME280;7920;42.524;27.448;2022-12-18T13:59:12;102674.56;;;8.08;100.00
15642;BME280;7920;42.524;27.448;2022-12-18T14:01:48;102673.31;;;8.27;100.00
15642;BME280;7920;42.524;27.448;2022-12-18T14:04:22;102663.56;;;8.42;100.00
15642;BME280;7920;42.524;27.448;2022-12-18T14:06:56;102645.94;;;9.38;100.00
15642;BME280;7920;42.524;27.448;2022-12-18T14:09:29;102668.72;;;9.24;100.00
15642;BME280;7920;42.524;27.448;2022-12-18T14:12:00;102660.44;;;9.80;100.00
15642;BME280;7920;42.524;27.448;2022-12-18T14:14:53;102671.09;;;9.68;100.00
15642;BME280;7920;42.524;27.448;2022-12-18T14:17:23;102671.63;;;9.47;100.00
15642;BME280;7920;42.524;27.448;2022-12-18T14:19:54;102679.47;;;9.79;100.00
15642;BME280;7920;42.524;27.448;2022-12-18T14:22:25;102682.72;;;9.87;100.00
15642;BME280;7920;42.524;27.448;2022-12-18T14:25:15;102694.97;;;9.82;100.00
15642;BME280;7920;42.524;27.448;2022-12-18T14:27:47;102684.75;;;9.75;100.00
15642;BME280;7920;42.524;27.448;2022-12-18T14:30:29;102680.75;;;9.97;100.00
15642;BME280;7920;42.524;27.448;2022-12-18T14:33:02;102695.22;;;10.06;100.00
15642;BME280;7920;42.524;27.448;2022-12-18T14:35:34;102696.72;;;10.14;100.00
15642;BME280;7920;42.524;27.448;2022-12-18T14:38:29;102698.19;;;10.24;100.00
15642;BME280;7920;42.524;27.448;2022-12-18T14:41:00;102696.72;;;9.80;100.00
15642;BME280;7920;42.524;27.448;2022-12-18T14:43:33;102702.72;;;9.47;100.00
15642;BME280;7920;42.524;27.448;2022-12-18T14:46:26;102706.91;;;9.16;100.00
15642;BME280;7920;42.524;27.448;2022-12-18T14:48:58;102702.66;;;9.50;100.00
15642;BME280;7920;42.524;27.448;2022-12-18T14:51:30;102702.59;;;9.15;100.00
15642;BME280;7920;42.524;27.448;2022-12-18T14:54:02;102710.56;;;8.64;100.00
15642;BME280;7920;42.524;27.448;2022-12-18T14:56:36;102713.78;;;8.31;100.00
15642;BME280;7920;42.524;27.448;2022-12-18T14:59:14;102717.16;;;8.36;100.00
15642;BME280;7920;42.524;27.448;2022-12-18T15:01:58;102713.69;;;8.37;100.00
15642;BME280;7920;42.524;27.448;2022-12-18T15:04:33;102701.88;;;8.22;100.00
15642;BME280;7920;42.524;27.448;2022-12-18T15:07:12;102709.47;;;8.31;100.00
15642;BME280;7920;42.524;27.448;2022-12-18T15:09:47;102707.06;;;8.67;100.00
15642;BME280;7920;42.524;27.448;2022-12-18T15:12:34;102712.31;;;8.64;100.00
15642;BME280;7920;42.524;27.448;2022-12-18T15:17:59;102718.25;;;9.10;100.00
15642;BME280;7920;42.524;27.448;2022-12-18T15:20:31;102714.56;;;9.20;100.00
15642;BME280;7920;42.524;27.448;2022-12-18T15:23:02;102719.84;;;9.54;100.00
15642;BME280;7920;42.524;27.448;2022-12-18T15:25:35;102724.59;;;9.71;100.00
15642;BME280;7920;42.524;27.448;2022-12-18T15:28:17;102737.50;;;9.37;100.00
15642;BME280;7920;42.524;27.448;2022-12-18T15:31:03;102738.72;;;10.30;100.00
15642;BME280;7920;42.524;27.448;2022-12-18T15:33:38;102735.94;;;10.36;100.00
15642;BME280;7920;42.524;27.448;2022-12-18T15:36:12;102716.56;;;10.17;100.00
15642;BME280;7920;42.524;27.448;2022-12-18T15:38:46;102757.03;;;10.24;100.00
15642;BME280;7920;42.524;27.448;2022-12-18T15:41:19;102769.09;;;10.26;100.00
15642;BME280;7920;42.524;27.448;2022-12-18T15:43:52;102762.06;;;10.62;100.00
15642;BME280;7920;42.524;27.448;2022-12-18T15:46:21;102762.78;;;10.67;100.00
15642;BME280;7920;42.524;27.448;2022-12-18T15:48:55;102778.13;;;9.73;100.00
15642;BME280;7920;42.524;27.448;2022-12-18T15:51:31;102781.81;;;10.00;100.00
15642;BME280;7920;42.524;27.448;2022-12-18T15:54:03;102783.44;;;10.04;100.00
15642;BME280;7920;42.524;27.448;2022-12-18T15:56:34;102791.84;;;9.78;100.00
15642;BME280;7920;42.524;27.448;2022-12-18T15:59:18;102791.84;;;9.78;100.00
15642;BME280;7920;42.524;27.448;2022-12-18T16:01:51;102786.44;;;9.87;100.00
15642;BME280;7920;42.524;27.448;2022-12-18T16:04:24;102782.94;;;9.88;100.00
15642;BME280;7920;42.524;27.448;2022-12-18T16:06:54;102767.00;;;9.68;100.00
15642;BME280;7920;42.524;27.448;2022-12-18T16:09:41;102796.19;;;9.78;100.00
15642;BME280;7920;42.524;27.448;2022-12-18T16:12:16;102800.25;;;9.88;100.00
15642;BME280;7920;42.524;27.448;2022-12-18T16:14:47;102814.53;;;9.67;100.00
15642;BME280;7920;42.524;27.448;2022-12-18T16:17:17;102811.75;;;9.76;100.00
15642;BME280;7920;42.524;27.448;2022-12-18T16:19:50;102820.28;;;9.81;100.00
15642;BME280;7920;42.524;27.448;2022-12-18T16:22:22;102827.50;;;9.67;100.00
15642;BME280;7920;42.524;27.448;2022-12-18T16:24:54;102821.66;;;9.59;100.00
15642;BME280;7920;42.524;27.448;2022-12-18T16:27:25;102816.53;;;9.56;100.00
15642;BME280;7920;42.524;27.448;2022-12-18T16:29:55;102821.00;;;9.50;100.00
15642;BME280;7920;42.524;27.448;2022-12-18T16:32:26;102816.59;;;9.53;100.00
15642;BME280;7920;42.524;27.448;2022-12-18T16:35:02;102810.91;;;9.37;100.00
15642;BME280;7920;42.524;27.448;2022-12-18T16:37:32;102814.59;;;9.66;100.00
15642;BME280;7920;42.524;27.448;2022-12-18T16:40:03;102825.19;;;9.55;100.00
15642;BME280;7920;42.524;27.448;2022-12-18T16:42:36;102830.53;;;9.48;100.00
15642;BME280;7920;42.524;27.448;2022-12-18T16:45:07;102838.03;;;9.61;100.00
15642;BME280;7920;42.524;27.448;2022-12-18T16:47:38;102835.59;;;9.92;100.00
15642;BME280;7920;42.524;27.448;2022-12-18T16:50:11;102845.91;;;9.55;100.00
15642;BME280;7920;42.524;27.448;2022-12-18T16:52:41;102849.47;;;9.51;100.00
15642;BME280;7920;42.524;27.448;2022-12-18T16:55:12;102847.09;;;9.80;100.00
15642;BME280;7920;42.524;27.448;2022-12-18T16:57:42;102840.47;;;9.67;100.00
15642;BME280;7920;42.524;27.448;2022-12-18T17:00:13;102837.34;;;9.53;100.00
15642;BME280;7920;42.524;27.448;2022-12-18T17:02:44;102829.81;;;9.79;100.00
15642;BME280;7920;42.524;27.448;2022-12-18T17:05:17;102842.97;;;9.72;100.00
15642;BME280;7920;42.524;27.448;2022-12-18T17:07:47;102841.75;;;9.50;100.00
15642;BME280;7920;42.524;27.448;2022-12-18T17:10:17;102847.28;;;9.33;100.00
15642;BME280;7920;42.524;27.448;2022-12-18T17:12:49;102851.59;;;9.72;100.00
15642;BME280;7920;42.524;27.448;2022-12-18T17:15:20;102852.75;;;9.59;100.00
15642;BME280;7920;42.524;27.448;2022-12-18T17:17:50;102856.84;;;9.28;100.00
15642;BME280;7920;42.524;27.448;2022-12-18T17:20:24;102856.75;;;9.34;100.00
15642;BME280;7920;42.524;27.448;2022-12-18T17:22:54;102851.81;;;9.22;100.00
15642;BME280;7920;42.524;27.448;2022-12-18T17:25:25;102856.25;;;9.57;100.00
15642;BME280;7920;42.524;27.448;2022-12-18T17:27:56;102847.88;;;9.46;100.00
15642;BME280;7920;42.524;27.448;2022-12-18T17:30:26;102854.31;;;9.26;100.00
15642;BME280;7920;42.524;27.448;2022-12-18T17:32:56;102847.97;;;9.41;100.00
15642;BME280;7920;42.524;27.448;2022-12-18T17:35:29;102854.44;;;9.62;100.00
15642;BME280;7920;42.524;27.448;2022-12-18T17:37:59;102848.97;;;9.34;100.00
15642;BME280;7920;42.524;27.448;2022-12-18T17:40:31;102861.44;;;9.58;100.00
15642;BME280;7920;42.524;27.448;2022-12-18T17:43:02;102864.28;;;9.84;100.00
15642;BME280;7920;42.524;27.448;2022-12-18T17:45:34;102867.22;;;10.08;100.00
15642;BME280;7920;42.524;27.448;2022-12-18T17:48:04;102873.03;;;9.40;100.00
15642;BME280;7920;42.524;27.448;2022-12-18T17:50:38;102885.84;;;10.26;100.00
15642;BME280;7920;42.524;27.448;2022-12-18T17:53:08;102895.81;;;9.66;100.00
15642;BME280;7920;42.524;27.448;2022-12-18T17:55:38;102898.44;;;9.63;100.00
15642;BME280;7920;42.524;27.448;2022-12-18T17:58:08;102899.03;;;10.16;100.00
15642;BME280;7920;42.524;27.448;2022-12-18T18:00:38;102905.03;;;9.38;100.00
15642;BME280;7920;42.524;27.448;2022-12-18T18:03:09;102903.47;;;10.48;100.00
15642;BME280;7920;42.524;27.448;2022-12-18T18:05:42;102902.25;;;10.27;100.00
15642;BME280;7920;42.524;27.448;2022-12-18T18:08:12;102904.00;;;10.26;100.00
15642;BME280;7920;42.524;27.448;2022-12-18T18:10:42;102897.72;;;9.97;100.00
15642;BME280;7920;42.524;27.448;2022-12-18T18:13:18;102904.72;;;9.93;100.00
15642;BME280;7920;42.524;27.448;2022-12-18T18:16:08;102911.53;;;9.99;100.00
15642;BME280;7920;42.524;27.448;2022-12-18T18:18:39;102911.31;;;10.08;100.00
15642;BME280;7920;42.524;27.448;2022-12-18T18:21:11;102916.97;;;9.86;100.00
15642;BME280;7920;42.524;27.448;2022-12-18T18:23:42;102910.44;;;10.07;100.00
15642;BME280;7920;42.524;27.448;2022-12-18T18:26:14;102926.75;;;10.12;100.00
15642;BME280;7920;42.524;27.448;2022-12-18T18:28:44;102918.25;;;10.46;100.00
15642;BME280;7920;42.524;27.448;2022-12-18T18:31:14;102941.53;;;10.09;100.00
15642;BME280;7920;42.524;27.448;2022-12-18T18:33:45;102932.75;;;10.16;100.00
15642;BME280;7920;42.524;27.448;2022-12-18T18:36:18;102930.13;;;10.19;100.00
15642;BME280;7920;42.524;27.448;2022-12-18T18:38:48;102935.34;;;10.54;100.00
15642;BME280;7920;42.524;27.448;2022-12-18T18:41:19;102936.00;;;10.62;100.00
15642;BME280;7920;42.524;27.448;2022-12-18T18:43:53;102927.69;;;10.48;100.00
15642;BME280;7920;42.524;27.448;2022-12-18T18:46:25;102938.81;;;10.16;100.00
15642;BME280;7920;42.524;27.448;2022-12-18T18:48:57;102949.56;;;10.38;100.00
15642;BME280;7920;42.524;27.448;2022-12-18T18:51:30;102948.69;;;10.74;100.00
15642;BME280;7920;42.524;27.448;2022-12-18T18:54:01;102952.88;;;10.43;100.00
15642;BME280;7920;42.524;27.448;2022-12-18T18:56:31;102955.41;;;10.08;100.00
15642;BME280;7920;42.524;27.448;2022-12-18T18:59:22;102967.69;;;9.11;100.00
15642;BME280;7920;42.524;27.448;2022-12-18T19:01:57;102965.16;;;9.09;100.00
15642;BME280;7920;42.524;27.448;2022-12-18T19:04:31;102972.06;;;8.58;100.00
15642;BME280;7920;42.524;27.448;2022-12-18T19:07:13;102979.88;;;8.54;100.00
15642;BME280;7920;42.524;27.448;2022-12-18T19:09:57;102987.03;;;8.35;100.00
15642;BME280;7920;42.524;27.448;2022-12-18T19:12:33;102974.09;;;7.68;100.00
15642;BME280;7920;42.524;27.448;2022-12-18T19:15:15;102989.09;;;7.37;100.00
15642;BME280;7920;42.524;27.448;2022-12-18T19:17:46;103000.16;;;7.49;100.00
15642;BME280;7920;42.524;27.448;2022-12-18T19:20:16;103000.44;;;7.21;100.00
15642;BME280;7920;42.524;27.448;2022-12-18T19:22:49;102996.13;;;7.21;100.00
15642;BME280;7920;42.524;27.448;2022-12-18T19:25:23;103002.25;;;7.08;100.00
15642;BME280;7920;42.524;27.448;2022-12-18T19:28:07;102995.50;;;6.93;100.00
15642;BME280;7920;42.524;27.448;2022-12-18T19:30:48;102997.28;;;7.74;100.00
15642;BME280;7920;42.524;27.448;2022-12-18T19:33:27;103002.19;;;7.96;100.00
15642;BME280;7920;42.524;27.448;2022-12-18T19:36:12;103008.78;;;8.81;100.00
15642;BME280;7920;42.524;27.448;2022-12-18T19:38:45;103007.06;;;8.80;100.00
15642;BME280;7920;42.524;27.448;2022-12-18T19:41:17;103015.63;;;8.85;100.00
15642;BME280;7920;42.524;27.448;2022-12-18T19:43:48;103002.53;;;8.95;100.00
15642;BME280;7920;42.524;27.448;2022-12-18T19:46:20;103011.69;;;9.14;100.00
15642;BME280;7920;42.524;27.448;2022-12-18T19:48:51;103018.19;;;9.37;100.00
15642;BME280;7920;42.524;27.448;2022-12-18T19:51:24;103010.91;;;9.09;100.00
15642;BME280;7920;42.524;27.448;2022-12-18T19:53:58;103020.91;;;8.78;100.00
15642;BME280;7920;42.524;27.448;2022-12-18T19:56:30;103021.06;;;9.21;100.00
15642;BME280;7920;42.524;27.448;2022-12-18T19:59:01;103023.72;;;9.18;100.00
15642;BME280;7920;42.524;27.448;2022-12-18T20:01:31;103031.38;;;9.24;100.00
15642;BME280;7920;42.524;27.448;2022-12-18T20:04:02;103036.31;;;9.36;100.00
15642;BME280;7920;42.524;27.448;2022-12-18T20:06:34;103044.53;;;9.59;100.00
15642;BME280;7920;42.524;27.448;2022-12-18T20:09:09;103028.47;;;9.42;100.00
15642;BME280;7920;42.524;27.448;2022-12-18T20:11:39;103035.25;;;9.92;100.00
15642;BME280;7920;42.524;27.448;2022-12-18T20:14:10;103035.69;;;9.23;100.00
15642;BME280;7920;42.524;27.448;2022-12-18T20:16:49;103045.38;;;9.14;100.00
15642;BME280;7920;42.524;27.448;2022-12-18T20:19:39;103041.06;;;8.56;100.00
15642;BME280;7920;42.524;27.448;2022-12-18T20:22:09;103040.94;;;9.20;100.00
15642;BME280;7920;42.524;27.448;2022-12-18T20:24:42;103047.31;;;9.00;100.00
15642;BME280;7920;42.524;27.448;2022-12-18T20:27:15;103052.34;;;8.52;100.00
15642;BME280;7920;42.524;27.448;2022-12-18T20:29:45;103053.72;;;8.76;100.00
15642;BME280;7920;42.524;27.448;2022-12-18T20:32:15;103060.22;;;9.03;100.00
15642;BME280;7920;42.524;27.448;2022-12-18T20:34:45;103054.09;;;8.50;100.00
15642;BME280;7920;42.524;27.448;2022-12-18T20:37:16;103045.59;;;8.39;100.00
15642;BME280;7920;42.524;27.448;2022-12-18T20:39:49;103056.44;;;7.99;100.00
15642;BME280;7920;42.524;27.448;2022-12-18T20:42:20;103041.69;;;8.08;100.00
15642;BME280;7920;42.524;27.448;2022-12-18T20:44:50;103038.50;;;8.55;100.00
15642;BME280;7920;42.524;27.448;2022-12-18T20:47:20;103049.28;;;8.85;100.00
15642;BME280;7920;42.524;27.448;2022-12-18T20:49:50;103044.03;;;8.88;100.00
15642;BME280;7920;42.524;27.448;2022-12-18T20:52:20;103043.94;;;9.47;100.00
15642;BME280;7920;42.524;27.448;2022-12-18T20:54:53;103046.47;;;9.50;100.00
15642;BME280;7920;42.524;27.448;2022-12-18T20:57:26;103046.72;;;9.80;100.00
15642;BME280;7920;42.524;27.448;2022-12-18T20:59:56;103051.75;;;8.32;100.00
15642;BME280;7920;42.524;27.448;2022-12-18T21:02:26;103065.50;;;7.58;100.00
15642;BME280;7920;42.524;27.448;2022-12-18T21:04:57;103058.97;;;7.16;100.00
15642;BME280;7920;42.524;27.448;2022-12-18T21:07:27;103057.56;;;6.75;100.00
15642;BME280;7920;42.524;27.448;2022-12-18T21:10:08;103061.25;;;7.53;100.00
15642;BME280;7920;42.524;27.448;2022-12-18T21:12:43;103062.78;;;7.71;100.00
15642;BME280;7920;42.524;27.448;2022-12-18T21:15:28;103078.84;;;7.07;100.00
15642;BME280;7920;42.524;27.448;2022-12-18T21:17:58;103074.16;;;7.50;100.00
15642;BME280;7920;42.524;27.448;2022-12-18T21:20:29;103088.16;;;7.27;100.00
15642;BME280;7920;42.524;27.448;2022-12-18T21:22:59;103092.75;;;6.87;100.00
15642;BME280;7920;42.524;27.448;2022-12-18T21:25:45;103088.25;;;7.15;100.00
15642;BME280;7920;42.524;27.448;2022-12-18T21:28:22;103074.94;;;7.60;100.00
15642;BME280;7920;42.524;27.448;2022-12-18T21:30:52;103081.88;;;7.58;100.00
15642;BME280;7920;42.524;27.448;2022-12-18T21:33:22;103067.78;;;7.86;100.00
15642;BME280;7920;42.524;27.448;2022-12-18T21:35:52;103071.19;;;8.60;100.00
15642;BME280;7920;42.524;27.448;2022-12-18T21:38:22;103068.25;;;8.22;100.00
15642;BME280;7920;42.524;27.448;2022-12-18T21:40:55;103061.91;;;7.74;100.00
15642;BME280;7920;42.524;27.448;2022-12-18T21:43:26;103062.25;;;7.34;100.00
15642;BME280;7920;42.524;27.448;2022-12-18T21:46:08;103070.13;;;7.21;100.00
15642;BME280;7920;42.524;27.448;2022-12-18T21:48:38;103068.28;;;7.38;100.00
15642;BME280;7920;42.524;27.448;2022-12-18T21:51:09;103069.41;;;7.05;100.00
15642;BME280;7920;42.524;27.448;2022-12-18T21:53:39;103068.66;;;6.88;100.00
15642;BME280;7920;42.524;27.448;2022-12-18T21:56:13;103073.72;;;7.06;100.00
15642;BME280;7920;42.524;27.448;2022-12-18T21:58:46;103067.03;;;7.77;100.00
15642;BME280;7920;42.524;27.448;2022-12-18T22:01:23;103064.72;;;7.48;100.00
15642;BME280;7920;42.524;27.448;2022-12-18T22:04:03;103046.22;;;9.14;100.00
15642;BME280;7920;42.524;27.448;2022-12-18T22:06:33;103041.56;;;8.81;100.00
15642;BME280;7920;42.524;27.448;2022-12-18T22:09:05;103051.53;;;9.56;100.00
15642;BME280;7920;42.524;27.448;2022-12-18T22:11:38;103053.31;;;9.52;100.00
15642;BME280;7920;42.524;27.448;2022-12-18T22:14:09;103053.06;;;10.10;100.00
15642;BME280;7920;42.524;27.448;2022-12-18T22:16:39;103060.19;;;9.99;100.00
15642;BME280;7920;42.524;27.448;2022-12-18T22:19:11;103061.28;;;9.87;100.00
15642;BME280;7920;42.524;27.448;2022-12-18T22:21:43;103054.81;;;10.10;100.00
15642;BME280;7920;42.524;27.448;2022-12-18T22:24:15;103043.38;;;10.20;100.00
15642;BME280;7920;42.524;27.448;2022-12-18T22:26:48;103045.28;;;10.10;100.00
15642;BME280;7920;42.524;27.448;2022-12-18T22:29:27;103041.09;;;10.03;100.00
15642;BME280;7920;42.524;27.448;2022-12-18T22:32:12;103039.47;;;9.53;100.00
15642;BME280;7920;42.524;27.448;2022-12-18T22:34:57;103040.13;;;10.09;100.00
15642;BME280;7920;42.524;27.448;2022-12-18T22:37:36;103051.78;;;9.88;100.00
15642;BME280;7920;42.524;27.448;2022-12-18T22:40:08;103054.34;;;9.90;100.00
15642;BME280;7920;42.524;27.448;2022-12-18T22:42:45;103052.38;;;10.02;100.00
15642;BME280;7920;42.524;27.448;2022-12-18T22:45:17;103050.81;;;9.94;100.00
15642;BME280;7920;42.524;27.448;2022-12-18T22:47:47;103059.88;;;10.16;100.00
15642;BME280;7920;42.524;27.448;2022-12-18T22:50:17;103052.00;;;10.60;100.00
15642;BME280;7920;42.524;27.448;2022-12-18T22:52:47;103049.06;;;10.37;100.00
15642;BME280;7920;42.524;27.448;2022-12-18T22:55:18;103051.19;;;10.58;100.00
15642;BME280;7920;42.524;27.448;2022-12-18T22:57:51;103053.91;;;10.52;100.00
15642;BME280;7920;42.524;27.448;2022-12-18T23:00:21;103059.47;;;9.93;100.00
15642;BME280;7920;42.524;27.448;2022-12-18T23:02:51;103049.31;;;10.63;100.00
15642;BME280;7920;42.524;27.448;2022-12-18T23:05:28;103050.00;;;10.71;100.00
15642;BME280;7920;42.524;27.448;2022-12-18T23:07:58;103050.41;;;10.13;100.00
15642;BME280;7920;42.524;27.448;2022-12-18T23:10:29;103050.41;;;10.13;100.00
15642;BME280;7920;42.524;27.448;2022-12-18T23:13:01;103051.91;;;10.25;100.00
15642;BME280;7920;42.524;27.448;2022-12-18T23:15:32;103058.94;;;10.20;100.00
15642;BME280;7920;42.524;27.448;2022-12-18T23:18:02;103066.34;;;9.48;100.00
15642;BME280;7920;42.524;27.448;2022-12-18T23:20:34;103067.19;;;9.96;100.00
15642;BME280;7920;42.524;27.448;2022-12-18T23:23:05;103078.50;;;8.93;100.00
15642;BME280;7920;42.524;27.448;2022-12-18T23:25:36;103081.31;;;9.32;100.00
15642;BME280;7920;42.524;27.448;2022-12-18T23:28:08;103075.84;;;8.97;100.00
15642;BME280;7920;42.524;27.448;2022-12-18T23:30:39;103075.13;;;8.87;100.00
15642;BME280;7920;42.524;27.448;2022-12-18T23:33:09;103078.78;;;8.74;100.00
15642;BME280;7920;42.524;27.448;2022-12-18T23:35:39;103089.22;;;8.68;100.00
15642;BME280;7920;42.524;27.448;2022-12-18T23:38:09;103095.56;;;9.05;100.00
15642;BME280;7920;42.524;27.448;2022-12-18T23:40:39;103095.25;;;8.67;100.00
15642;BME280;7920;42.524;27.448;2022-12-18T23:43:14;103092.38;;;8.88;100.00
15642;BME280;7920;42.524;27.448;2022-12-18T23:45:44;103088.03;;;8.24;100.00
15642;BME280;7920;42.524;27.448;2022-12-18T23:48:21;103100.63;;;9.13;100.00
15642;BME280;7920;42.524;27.448;2022-12-18T23:50:51;103097.06;;;9.70;100.00
15642;BME280;7920;42.524;27.448;2022-12-18T23:53:21;103100.16;;;9.91;100.00
15642;BME280;7920;42.524;27.448;2022-12-18T23:55:51;103096.38;;;10.07;100.00
15642;BME280;7920;42.524;27.448;2022-12-18T23:58:25;103086.66;;;9.72;100.00
